Time;durP1;ratioP1;P1;durP2;ratioP2;P2;SDS_P1;SDS_P2;PMS_P1;PMS_P2;Temp;Humidity;BMP_temperature;BMP_pressure;BME280_temperature;BME280_humidity;BME280_pressure;Samples;Min_cycle;Max_cycle;Signal;HPM_P1;HPM_P2
2023/06/28 00:02:04;;;;;;;7.13;2.65;;;;;;;15.51;100.00;101846.06;5067265;28;20087;-73
2023/06/28 00:04:51;;;;;;;7.85;2.53;;;;;;;15.50;100.00;101849.66;5050534;28;20060;-73
2023/06/28 00:07:37;;;;;;;4.85;2.20;;;;;;;15.48;100.00;101844.41;5048821;28;20039;-73
2023/06/28 00:10:23;;;;;;;3.67;2.25;;;;;;;15.48;100.00;101840.88;5049347;28;20039;-73
2023/06/28 00:13:09;;;;;;;5.57;2.58;;;;;;;15.48;100.00;101840.88;5048407;28;20050;-73
2023/06/28 00:15:55;;;;;;;4.25;2.40;;;;;;;15.48;100.00;101832.88;5035568;28;20032;-73
2023/06/28 00:18:40;;;;;;;4.70;2.65;;;;;;;15.48;100.00;101840.88;5064817;28;20092;-73
2023/06/28 00:21:27;;;;;;;5.45;3.10;;;;;;;15.48;100.00;101835.56;5050127;28;20105;-73
2023/06/28 00:24:13;;;;;;;6.95;2.90;;;;;;;15.47;100.00;101839.13;5026417;28;20040;-73
2023/06/28 00:26:59;;;;;;;6.43;3.25;;;;;;;15.47;100.00;101841.81;5047541;28;20040;-72
2023/06/28 00:29:44;;;;;;;5.10;2.75;;;;;;;15.48;100.00;101835.56;5048724;28;20537;-73
2023/06/28 00:32:30;;;;;;;6.30;2.95;;;;;;;15.48;100.00;101838.22;5051451;28;20039;-73
2023/06/28 00:35:16;;;;;;;6.55;3.05;;;;;;;15.48;100.00;101836.41;5065598;28;20074;-73
2023/06/28 00:38:02;;;;;;;5.38;3.08;;;;;;;15.47;100.00;101841.81;5050608;28;20575;-73
2023/06/28 00:40:47;;;;;;;6.40;3.15;;;;;;;15.43;100.00;101842.91;5064638;28;21876;-73
2023/06/28 00:43:33;;;;;;;4.43;2.90;;;;;;;15.42;100.00;101852.72;5064911;28;20040;-73
2023/06/28 00:46:19;;;;;;;5.18;2.75;;;;;;;15.43;100.00;101842.91;5063911;28;20040;-73
2023/06/28 00:49:05;;;;;;;5.82;2.40;;;;;;;15.41;100.00;101850.16;5048783;28;20043;-73
2023/06/28 00:51:51;;;;;;;4.25;2.40;;;;;;;15.41;100.00;101853.66;5062485;28;20066;-73
2023/06/28 00:54:37;;;;;;;5.00;2.70;;;;;;;15.42;100.00;101846.53;5048815;28;20052;-73
2023/06/28 00:57:23;;;;;;;5.72;2.55;;;;;;;15.43;100.00;101848.25;5063245;28;21376;-73
2023/06/28 01:00:12;;;;;;;2.78;2.03;;;;;;;15.43;100.00;101845.59;5060996;28;20056;-72
2023/06/28 01:03:00;;;;;;;6.65;2.38;;;;;;;15.43;100.00;101848.25;5046873;28;20069;-73
2023/06/28 01:05:48;;;;;;;3.95;2.17;;;;;;;15.44;100.00;101841.97;5057776;28;20047;-73
2023/06/28 01:08:34;;;;;;;3.88;2.40;;;;;;;15.44;100.00;101839.31;5062635;28;20051;-73
2023/06/28 01:11:20;;;;;;;4.00;2.50;;;;;;;15.44;100.00;101841.97;5063309;28;20032;-73
2023/06/28 01:14:06;;;;;;;4.13;2.47;;;;;;;15.43;100.00;101845.59;5048500;28;20137;-74
2023/06/28 01:16:54;;;;;;;4.20;2.60;;;;;;;15.42;100.00;101838.53;5064117;28;20109;-73
2023/06/28 01:19:40;;;;;;;3.90;1.92;;;;;;;15.42;100.00;101841.19;5049353;28;20039;-73
2023/06/28 01:22:26;;;;;;;4.13;2.20;;;;;;;15.38;100.00;101839.59;5045052;28;20043;-74
2023/06/28 01:25:12;;;;;;;3.42;1.70;;;;;;;15.37;100.00;101838.75;5063124;28;20213;-73
2023/06/28 01:27:58;;;;;;;5.03;2.15;;;;;;;15.34;100.00;101834.44;5035977;28;20640;-73
2023/06/28 01:30:44;;;;;;;2.00;1.40;;;;;;;15.30;100.00;101842.66;5038276;28;20555;-73
2023/06/28 01:33:30;;;;;;;1.67;1.30;;;;;;;15.27;100.00;101837.47;5063602;28;20044;-73
2023/06/28 01:36:15;;;;;;;3.75;1.55;;;;;;;15.23;100.00;101839.44;5061559;28;20036;-74
2023/06/28 01:39:01;;;;;;;2.33;1.17;;;;;;;15.20;100.00;101834.28;5062277;28;20051;-73
2023/06/28 01:41:48;;;;;;;1.45;1.30;;;;;;;15.16;100.00;101840.69;5042169;28;20052;-74
2023/06/28 01:44:34;;;;;;;3.58;1.40;;;;;;;15.10;100.00;101838.31;5044099;28;20047;-74
2023/06/28 01:47:20;;;;;;;2.53;1.35;;;;;;;15.05;100.00;101836.72;5041459;28;20041;-73
2023/06/28 01:50:07;;;;;;;1.80;1.27;;;;;;;15.02;100.00;101826.22;5042402;28;20044;-73
2023/06/28 01:52:53;;;;;;;1.80;1.20;;;;;;;14.98;100.00;101831.78;5031324;28;20049;-73
2023/06/28 01:55:39;;;;;;;2.60;1.40;;;;;;;14.95;100.00;101835.47;5042384;28;20110;-74
2023/06/28 01:58:25;;;;;;;4.38;1.50;;;;;;;14.91;100.00;101832.06;5040784;28;20125;-73
2023/06/28 02:01:11;;;;;;;3.08;1.40;;;;;;;14.88;100.00;101834.03;5045581;28;20047;-73
2023/06/28 02:03:56;;;;;;;3.15;1.50;;;;;;;14.84;100.00;101830.63;5045299;28;20056;-72
2023/06/28 02:06:42;;;;;;;2.47;1.52;;;;;;;14.80;100.00;101834.38;5045871;28;20033;-72
2023/06/28 02:09:28;;;;;;;1.63;1.52;;;;;;;14.76;100.00;101831.00;5048800;28;20032;-73
2023/06/28 02:12:14;;;;;;;1.83;1.48;;;;;;;14.73;100.00;101832.91;5049763;28;20465;-73
2023/06/28 02:15:03;;;;;;;4.47;1.70;;;;;;;14.70;100.00;101825.91;5047805;28;20044;-73
2023/06/28 02:17:49;;;;;;;2.30;1.45;;;;;;;14.68;100.00;101825.13;5047471;28;20032;-73
2023/06/28 02:20:34;;;;;;;3.33;1.50;;;;;;;14.63;100.00;101825.38;5048656;28;20044;-72
2023/06/28 02:23:20;;;;;;;3.10;1.67;;;;;;;14.61;100.00;101823.69;5043702;28;20119;-72
2023/06/28 02:26:06;;;;;;;3.88;1.83;;;;;;;14.59;100.00;101815.78;5047644;28;20503;-73
2023/06/28 02:28:55;;;;;;;3.05;1.50;;;;;;;14.58;100.00;101818.50;5044692;28;20117;-72
2023/06/28 02:31:40;;;;;;;2.08;1.67;;;;;;;14.56;100.00;101809.72;5045942;28;20045;-73
2023/06/28 02:34:26;;;;;;;1.60;1.50;;;;;;;14.53;100.00;101811.59;5046141;28;20135;-73
2023/06/28 02:37:12;;;;;;;5.85;1.77;;;;;;;14.52;100.00;101806.34;5040123;28;20534;-72
2023/06/28 02:39:59;;;;;;;2.90;1.33;;;;;;;14.52;100.00;101809.00;5047263;28;20047;-73
2023/06/28 02:42:44;;;;;;;1.95;1.40;;;;;;;14.52;100.00;101807.22;5042665;28;20052;-73
2023/06/28 02:45:30;;;;;;;3.30;1.50;;;;;;;14.52;100.00;101803.69;5047340;28;20044;-73
2023/06/28 02:48:16;;;;;;;2.83;1.52;;;;;;;14.52;100.00;101809.00;5042771;28;20040;-73
2023/06/28 02:51:02;;;;;;;3.42;1.55;;;;;;;14.52;100.00;101804.56;5042978;28;20041;-72
2023/06/28 02:53:48;;;;;;;3.65;1.50;;;;;;;14.55;100.00;101810.66;5047213;28;20040;-72
2023/06/28 02:56:34;;;;;;;2.03;1.25;;;;;;;14.57;100.00;101808.78;5016602;28;20040;-73
2023/06/28 02:59:20;;;;;;;2.97;1.20;;;;;;;14.57;100.00;101803.44;5043616;28;20051;-73
2023/06/28 03:02:05;;;;;;;4.47;1.60;;;;;;;14.58;100.00;101798.06;5046195;28;20048;-72
2023/06/28 03:04:51;;;;;;;2.70;1.73;;;;;;;14.59;100.00;101798.94;5047049;28;20048;-72
2023/06/28 03:07:37;;;;;;;1.73;1.38;;;;;;;14.61;100.00;101794.38;5045179;28;21105;-73
2023/06/28 03:10:23;;;;;;;3.25;1.33;;;;;;;14.62;100.00;101796.13;5045666;28;21308;-72
2023/06/28 03:13:09;;;;;;;2.35;1.42;;;;;;;14.65;100.00;101798.63;5045635;28;20040;-73
2023/06/28 03:15:55;;;;;;;2.78;1.50;;;;;;;14.67;100.00;101792.28;5030525;28;20093;-72
2023/06/28 03:18:41;;;;;;;2.33;1.42;;;;;;;14.69;100.00;101794.00;5045067;28;20064;-72
2023/06/28 03:21:26;;;;;;;5.20;1.70;;;;;;;14.70;100.00;101783.28;5045865;28;20052;-73
2023/06/28 03:24:12;;;;;;;2.35;1.70;;;;;;;14.72;100.00;101786.75;5029221;28;20123;-73
2023/06/28 03:26:58;;;;;;;3.47;1.80;;;;;;;14.73;100.00;101780.47;5046715;28;20043;-72
2023/06/28 03:29:43;;;;;;;5.10;1.75;;;;;;;14.76;100.00;101785.69;5042415;28;20511;-73
2023/06/28 03:32:29;;;;;;;2.38;1.55;;;;;;;14.77;100.00;101791.91;5042122;28;20430;-73
2023/06/28 03:35:15;;;;;;;5.32;1.98;;;;;;;14.78;100.00;101789.13;5043358;28;20470;-73
2023/06/28 03:38:01;;;;;;;3.17;1.60;;;;;;;14.80;100.00;101787.28;5043913;28;20055;-73
2023/06/28 03:40:47;;;;;;;5.38;1.80;;;;;;;14.78;100.00;101785.63;5044125;28;20036;-73
2023/06/28 03:43:33;;;;;;;4.40;2.10;;;;;;;14.79;100.00;101782.00;5064967;28;20040;-72
2023/06/28 03:46:18;;;;;;;3.78;1.92;;;;;;;14.80;100.00;101781.06;5065282;28;20075;-73
2023/06/28 03:49:04;;;;;;;3.70;2.17;;;;;;;14.81;100.00;101777.47;5047715;28;20036;-72
2023/06/28 03:51:50;;;;;;;3.65;1.90;;;;;;;14.84;100.00;101776.44;5049399;28;20411;-73
2023/06/28 03:54:36;;;;;;;3.40;1.85;;;;;;;14.85;100.00;101772.84;5066057;28;20040;-72
2023/06/28 03:57:21;;;;;;;3.03;2.08;;;;;;;14.88;100.00;101767.38;5064315;28;20039;-73
2023/06/28 04:00:09;;;;;;;3.47;2.35;;;;;;;14.88;100.00;101770.03;5047925;28;20047;-73
2023/06/28 04:02:55;;;;;;;5.20;2.30;;;;;;;14.89;100.00;101774.44;5050241;28;20129;-72
2023/06/28 04:05:40;;;;;;;3.83;2.00;;;;;;;14.88;100.00;101770.03;5035454;28;20091;-73
2023/06/28 04:08:26;;;;;;;5.72;2.28;;;;;;;14.90;100.00;101770.81;5064161;28;20040;-72
2023/06/28 04:11:12;;;;;;;4.00;2.03;;;;;;;14.92;100.00;101763.59;5044159;28;20592;-73
2023/06/28 04:13:58;;;;;;;3.22;1.95;;;;;;;14.91;100.00;101768.09;5037022;28;20040;-72
2023/06/28 04:16:44;;;;;;;3.75;2.40;;;;;;;14.94;100.00;101764.41;5064152;28;20590;-73
2023/06/28 04:19:29;;;;;;;4.95;2.35;;;;;;;14.94;100.00;101754.59;5047272;28;20992;-73
2023/06/28 04:22:15;;;;;;;6.15;2.30;;;;;;;14.95;100.00;101766.13;5063033;28;20569;-73
2023/06/28 04:25:01;;;;;;;5.32;2.50;;;;;;;14.97;100.00;101766.91;5064507;28;20046;-72
2023/06/28 04:27:47;;;;;;;5.80;2.55;;;;;;;14.96;100.00;101772.31;5064730;28;20053;-72
2023/06/28 04:30:33;;;;;;;5.15;2.78;;;;;;;14.95;100.00;101776.78;5061731;28;20589;-72
2023/06/28 04:33:22;;;;;;;8.10;3.03;;;;;;;14.91;100.00;101778.75;5063200;28;20101;-72
2023/06/28 04:36:09;;;;;;;8.85;3.10;;;;;;;14.91;100.00;101773.41;5062873;28;20463;-73
2023/06/28 04:38:55;;;;;;;7.18;3.00;;;;;;;14.89;100.00;101777.09;5063563;28;20035;-73
2023/06/28 04:41:40;;;;;;;4.93;3.33;;;;;;;14.85;100.00;101770.19;5063260;28;20552;-73
2023/06/28 04:44:31;;;;;;;7.30;3.30;;;;;;;14.80;100.00;101768.63;5045091;28;20961;-73
2023/06/28 04:47:17;;;;;;;7.05;3.78;;;;;;;14.78;100.00;101767.81;5064454;28;20039;-74
2023/06/28 04:50:03;;;;;;;7.63;3.47;;;;;;;14.73;100.00;101761.81;5049505;28;20040;-74
2023/06/28 04:52:49;;;;;;;6.30;3.67;;;;;;;14.72;100.00;101769.88;5064216;28;20052;-74
2023/06/28 04:55:35;;;;;;;6.97;3.38;;;;;;;14.67;100.00;101764.78;5065153;28;20653;-74
2023/06/28 04:58:22;;;;;;;8.27;4.40;;;;;;;14.61;100.00;101754.41;5062097;28;20097;-74
2023/06/28 05:01:08;;;;;;;9.10;4.00;;;;;;;14.61;100.00;101765.06;5063036;28;20058;-75
2023/06/28 05:03:56;;;;;;;6.18;3.58;;;;;;;14.63;100.00;101763.19;5064756;28;21034;-74
2023/06/28 05:06:42;;;;;;;10.23;4.30;;;;;;;14.63;100.00;101763.19;5063116;28;20050;-75
2023/06/28 05:09:28;;;;;;;8.85;4.47;;;;;;;14.62;100.00;101762.34;5048785;28;20125;-74
2023/06/28 05:12:14;;;;;;;8.35;4.53;;;;;;;14.66;100.00;101755.91;5061400;28;20188;-74
2023/06/28 05:14:59;;;;;;;8.57;3.97;;;;;;;14.69;100.00;101752.25;5065523;28;20043;-75
2023/06/28 05:17:45;;;;;;;5.78;3.90;;;;;;;14.71;100.00;101754.84;5048155;28;20058;-74
2023/06/28 05:20:31;;;;;;;7.43;3.83;;;;;;;14.67;100.00;101756.78;5036487;28;20036;-74
2023/06/28 05:23:20;;;;;;;6.80;4.22;;;;;;;14.65;100.00;101751.53;5063889;28;20047;-74
2023/06/28 05:26:06;;;;;;;6.82;4.40;;;;;;;14.62;100.00;101745.47;5047031;28;20813;-74
2023/06/28 05:28:52;;;;;;;6.53;3.85;;;;;;;14.60;100.00;101747.38;5064974;28;20032;-74
2023/06/28 05:31:38;;;;;;;7.15;4.18;;;;;;;14.60;100.00;101742.88;5049185;28;20043;-73
2023/06/28 05:34:24;;;;;;;9.02;4.47;;;;;;;14.60;100.00;101744.69;5044853;28;20039;-74
2023/06/28 05:37:09;;;;;;;9.35;4.00;;;;;;;14.64;100.00;101743.59;5065760;28;20717;-73
2023/06/28 05:39:55;;;;;;;8.10;4.40;;;;;;;14.63;100.00;101732.09;5069093;28;20132;-74
2023/06/28 05:42:41;;;;;;;11.13;4.53;;;;;;;14.65;100.00;101734.66;5050878;28;20388;-73
2023/06/28 05:45:28;;;;;;;7.88;4.40;;;;;;;14.59;100.00;101735.00;5066106;28;20058;-74
2023/06/28 05:48:13;;;;;;;8.90;4.30;;;;;;;14.53;100.00;101736.13;5035950;28;20574;-74
2023/06/28 05:51:02;;;;;;;7.28;4.28;;;;;;;14.49;100.00;101734.56;5067554;28;20039;-74
2023/06/28 05:53:47;;;;;;;11.15;4.75;;;;;;;14.48;100.00;101733.69;5068868;28;20031;-74
2023/06/28 05:56:33;;;;;;;10.68;4.70;;;;;;;14.48;100.00;101736.34;5065727;28;20052;-74
2023/06/28 05:59:19;;;;;;;8.68;4.65;;;;;;;14.49;100.00;101730.09;5068918;28;20032;-74
2023/06/28 06:02:05;;;;;;;9.85;5.15;;;;;;;14.48;100.00;101739.00;5071044;28;20040;-74
2023/06/28 06:04:51;;;;;;;9.02;4.47;;;;;;;14.48;100.00;101733.69;5054833;28;20971;-73
2023/06/28 06:07:39;;;;;;;9.25;4.88;;;;;;;14.44;100.00;101745.41;5069971;28;20098;-74
2023/06/28 06:10:26;;;;;;;9.02;4.70;;;;;;;14.43;100.00;101743.69;5068540;28;20051;-74
2023/06/28 06:13:12;;;;;;;8.18;4.25;;;;;;;14.44;100.00;101742.75;5056186;28;20040;-74
2023/06/28 06:15:58;;;;;;;8.63;4.70;;;;;;;14.49;100.00;101743.41;5072072;28;20560;-74
2023/06/28 06:18:44;;;;;;;9.88;4.07;;;;;;;14.51;100.00;101746.00;5064215;28;20466;-73
2023/06/28 06:21:29;;;;;;;8.90;4.88;;;;;;;14.52;100.00;101740.59;5050893;28;20095;-75
2023/06/28 06:24:15;;;;;;;6.57;4.03;;;;;;;14.53;100.00;101738.78;5071562;28;20115;-74
2023/06/28 06:27:02;;;;;;;8.13;4.60;;;;;;;14.55;100.00;101744.94;5057263;28;20093;-74
2023/06/28 06:29:50;;;;;;;7.68;4.88;;;;;;;14.57;100.00;101745.72;5063214;28;20040;-75
2023/06/28 06:32:36;;;;;;;7.18;4.55;;;;;;;14.59;100.00;101746.50;5043898;28;21972;-74
2023/06/28 06:35:24;;;;;;;7.72;4.97;;;;;;;14.62;100.00;101745.47;5064096;28;20040;-74
2023/06/28 06:38:09;;;;;;;8.50;4.70;;;;;;;14.66;100.00;101747.06;5064797;28;20313;-75
2023/06/28 06:40:55;;;;;;;7.00;4.40;;;;;;;14.72;100.00;101746.78;5049115;28;20047;-74
2023/06/28 06:43:41;;;;;;;8.90;4.90;;;;;;;14.76;100.00;101742.19;5065531;28;20055;-75
2023/06/28 06:46:30;;;;;;;11.20;5.20;;;;;;;14.80;100.00;101747.28;5067537;28;20050;-75
2023/06/28 06:49:18;;;;;;;8.93;4.90;;;;;;;14.85;100.00;101746.19;5067283;28;20036;-75
2023/06/28 06:52:05;;;;;;;9.90;4.97;;;;;;;14.87;100.00;101750.50;5066435;28;20049;-74
2023/06/28 06:54:50;;;;;;;10.95;4.72;;;;;;;14.90;100.00;101752.16;5067947;28;20066;-74
2023/06/28 06:57:36;;;;;;;7.70;4.68;;;;;;;14.89;100.00;101753.97;5050469;28;20043;-75
2023/06/28 07:00:22;;;;;;;8.93;4.75;;;;;;;14.92;100.00;101758.28;5065277;28;20036;-75
2023/06/28 07:03:08;;;;;;;10.55;4.93;;;;;;;14.91;100.00;101759.22;5065953;28;20497;-75
2023/06/28 07:05:54;;;;;;;7.80;4.82;;;;;;;14.90;100.00;101762.81;5063770;28;20039;-75
2023/06/28 07:08:40;;;;;;;12.70;5.03;;;;;;;14.91;100.00;101767.22;5050474;28;20051;-75
2023/06/28 07:11:25;;;;;;;9.38;5.00;;;;;;;14.90;100.00;101763.69;5065678;28;20043;-75
2023/06/28 07:14:11;;;;;;;10.00;5.22;;;;;;;14.88;100.00;101768.22;5064615;28;20032;-75
2023/06/28 07:17:00;;;;;;;12.73;4.95;;;;;;;14.88;100.00;101764.72;5049785;28;20186;-75
2023/06/28 07:19:46;;;;;;;9.18;5.57;;;;;;;14.88;100.00;101770.03;5033283;28;20063;-74
2023/06/28 07:22:31;;;;;;;10.80;5.80;;;;;;;14.88;100.00;101765.56;5052168;28;20036;-75
2023/06/28 07:25:17;;;;;;;8.90;5.05;;;;;;;14.86;100.00;101771.94;5048493;28;20039;-75
2023/06/28 07:28:03;;;;;;;9.30;5.50;;;;;;;14.88;100.00;101762.88;5064093;28;20043;-75
2023/06/28 07:30:57;;;;;;;10.88;5.15;;;;;;;14.86;100.00;101764.78;5065463;28;20074;-75
2023/06/28 07:33:43;;;;;;;9.60;5.38;;;;;;;14.87;100.00;101765.66;5039544;28;20040;-74
2023/06/28 07:36:29;;;;;;;10.45;5.57;;;;;;;14.90;100.00;101760.16;5064962;28;20070;-75
2023/06/28 07:39:14;;;;;;;9.10;5.20;;;;;;;14.94;100.00;101759.06;5036505;28;21124;-75
2023/06/28 07:42:00;;;;;;;7.65;5.22;;;;;;;14.94;100.00;101761.75;5063083;28;20051;-75
2023/06/28 07:44:46;;;;;;;10.43;5.97;;;;;;;14.96;100.00;101758.97;5051238;28;20051;-74
2023/06/28 07:47:32;;;;;;;9.82;5.50;;;;;;;14.97;100.00;101764.25;5064887;28;20039;-74
2023/06/28 07:50:22;;;;;;;7.57;5.00;;;;;;;14.97;100.00;101766.91;5050401;28;20505;-75
2023/06/28 07:53:08;;;;;;;10.27;5.65;;;;;;;15.01;100.00;101762.28;5046796;28;20512;-75
2023/06/28 07:55:53;;;;;;;13.57;6.22;;;;;;;15.03;100.00;101760.44;5066053;28;20044;-74
2023/06/28 07:58:39;;;;;;;8.18;5.68;;;;;;;15.03;100.00;101761.28;5062483;28;20052;-75
2023/06/28 08:01:25;;;;;;;9.23;5.68;;;;;;;15.06;100.00;101763.81;5064631;28;20047;-75
2023/06/28 08:04:11;;;;;;;9.82;6.32;;;;;;;15.11;100.00;101762.69;5048845;28;20043;-76
2023/06/28 08:06:59;;;;;;;10.02;6.40;;;;;;;15.15;100.00;101764.28;5049856;28;20074;-76
2023/06/28 08:09:45;;;;;;;11.23;6.32;;;;;;;15.15;100.00;101766.94;5062796;28;20036;-75
2023/06/28 08:12:31;;;;;;;10.07;6.25;;;;;;;15.14;100.00;101758.06;5048622;28;20094;-76
2023/06/28 08:15:18;;;;;;;10.90;6.05;;;;;;;15.15;100.00;101766.94;5064993;28;20058;-75
2023/06/28 08:18:05;;;;;;;11.00;6.57;;;;;;;15.16;100.00;101761.50;5066699;28;20044;-76
2023/06/28 08:20:51;;;;;;;9.95;6.25;;;;;;;15.18;100.00;101766.78;5052029;28;20134;-75
2023/06/28 08:23:37;;;;;;;13.38;7.03;;;;;;;15.19;100.00;101766.72;5069117;28;20048;-76
2023/06/28 08:26:23;;;;;;;13.45;7.38;;;;;;;15.19;100.00;101765.84;5070822;28;22018;-75
2023/06/28 08:29:09;;;;;;;17.17;9.07;;;;;;;15.25;100.00;101764.69;5070025;28;20063;-76
2023/06/28 08:31:54;;;;;;;17.85;8.57;;;;;;;15.25;100.00;101762.84;5069005;28;20070;-76
2023/06/28 08:34:40;;;;;;;19.48;8.60;;;;;;;15.26;100.00;101766.41;5056603;28;20036;-76
2023/06/28 08:37:30;;;;;;;14.75;8.27;;;;;;;15.28;100.00;101764.50;5069282;28;20043;-85
2023/06/28 08:40:15;;;;;;;13.88;8.35;;;;;;;15.33;100.00;101762.47;5052320;28;20051;-75
2023/06/28 08:43:02;;;;;;;26.75;13.07;;;;;;;15.37;100.00;101763.19;5065610;28;20135;-77
2023/06/28 08:45:48;;;;;;;19.00;9.00;;;;;;;15.39;100.00;101761.28;5053490;28;20050;-77
2023/06/28 08:48:34;;;;;;;16.38;8.75;;;;;;;15.42;100.00;101766.50;5037883;28;20044;-76
2023/06/28 08:51:20;;;;;;;13.90;8.13;;;;;;;15.40;100.00;101761.22;5069908;28;20161;-77
2023/06/28 08:54:07;;;;;;;18.00;9.32;;;;;;;15.42;100.00;101756.66;5053357;28;20444;-79
2023/06/28 08:56:56;;;;;;;13.30;8.57;;;;;;;15.49;100.00;101751.88;5068782;28;20036;-79
2023/06/28 08:59:44;;;;;;;15.95;9.07;;;;;;;15.53;100.00;101757.94;5054614;28;20039;-79
2023/06/28 09:02:32;;;;;;;14.20;8.95;;;;;;;15.55;100.00;101759.56;5053804;28;22370;-78
2023/06/28 09:05:18;;;;;;;15.32;9.02;;;;;;;15.57;100.00;101757.69;5037805;28;20108;-78
2023/06/28 09:08:05;;;;;;;13.65;8.95;;;;;;;15.58;100.00;101759.41;5054258;28;20518;-79
2023/06/28 09:10:50;;;;;;;15.93;8.95;;;;;;;15.60;100.00;101754.00;5068189;28;20040;-78
2023/06/28 09:13:36;;;;;;;15.18;9.43;;;;;;;15.62;100.00;101752.09;5040723;28;20036;-78
2023/06/28 09:16:23;;;;;;;16.00;9.77;;;;;;;15.63;100.00;101760.97;5054105;28;20359;-78
2023/06/28 09:19:09;;;;;;;17.42;10.43;;;;;;;15.63;100.00;101759.16;5059031;28;20036;-78
2023/06/28 09:22:02;;;;;;;15.93;9.50;;;;;;;15.66;100.00;101755.47;5060939;28;20061;-79
2023/06/28 09:24:48;;;;;;;;;;;;;;;15.70;100.00;101759.72;5051982;28;20039;-79
2023/06/28 09:27:34;;;;;;;15.65;9.25;;;;;;;15.72;100.00;101761.34;5070251;28;20280;-79
2023/06/28 09:30:20;;;;;;;17.73;10.27;;;;;;;15.73;100.00;101759.53;5068651;28;20044;-79
2023/06/28 09:33:06;;;;;;;16.45;9.98;;;;;;;15.77;100.00;101753.09;5064473;28;20045;-79
2023/06/28 09:35:55;;;;;;;18.08;10.55;;;;;;;15.86;100.00;101749.09;5035566;28;20036;-85
2023/06/28 09:38:44;;;;;;;15.25;10.48;;;;;;;15.93;100.00;101752.31;5051341;28;20035;-76
2023/06/28 09:41:41;;;;;;;18.25;11.38;;;;;;;16.02;100.00;101743.81;5049568;28;20199;-76
2023/06/28 09:44:30;;;;;;;19.75;11.10;;;;;;;16.03;100.00;101745.53;5068762;28;20043;-76
2023/06/28 09:47:16;;;;;;;27.63;12.10;;;;;;;16.11;100.00;101747.75;5069386;28;20141;-76
2023/06/28 09:50:02;;;;;;;30.77;12.80;;;;;;;16.22;100.00;101740.03;5068675;28;20036;-76
2023/06/28 09:52:48;;;;;;;21.80;12.07;;;;;;;16.30;100.00;101744.97;5067948;28;20044;-76
2023/06/28 09:55:34;;;;;;;21.27;12.68;;;;;;;16.37;100.00;101740.13;5067459;28;20036;-76
2023/06/28 09:58:23;;;;;;;20.73;11.93;;;;;;;16.45;100.00;101745.91;5049945;28;20919;-79
2023/06/28 10:01:09;;;;;;;17.65;11.60;;;;;;;16.50;100.00;101743.84;5067341;28;20040;-79
2023/06/28 10:03:55;;;;;;;21.80;12.07;;;;;;;16.53;100.00;101745.47;5068487;28;20040;-78
2023/06/28 10:06:41;;;;;;;21.80;13.55;;;;;;;16.59;100.00;101745.13;5054680;28;20042;-77
2023/06/28 10:09:32;;;;;;;19.10;12.75;;;;;;;16.62;100.00;101742.28;5041856;28;20036;-77
2023/06/28 10:12:20;;;;;;;23.33;12.75;;;;;;;16.62;100.00;101744.94;5069039;28;20060;-77
2023/06/28 10:15:10;;;;;;;19.05;12.05;;;;;;;16.64;100.00;101755.56;5038406;28;20631;-75
2023/06/28 10:17:56;;;;;;;18.33;12.00;;;;;;;16.64;100.00;101748.41;5051685;28;20474;-78
2023/06/28 10:20:42;;;;;;;17.38;11.10;;;;;;;16.64;100.00;101751.09;5055234;28;20044;-78
2023/06/28 10:23:29;;;;;;;20.17;11.90;;;;;;;16.61;100.00;101753.91;5070703;28;20047;-75
2023/06/28 10:26:15;;;;;;;15.18;10.60;;;;;;;16.62;100.00;101752.97;5069967;28;20043;-76
2023/06/28 10:29:02;;;;;;;17.63;11.27;;;;;;;16.67;100.00;101750.06;5051124;28;20051;-77
2023/06/28 10:31:51;;;;;;;18.88;11.32;;;;;;;16.72;100.00;101741.75;5067536;28;20073;-77
2023/06/28 10:34:37;;;;;;;18.20;11.32;;;;;;;16.77;100.00;101745.03;5055638;28;20072;-77
2023/06/28 10:37:23;;;;;;;17.73;11.65;;;;;;;16.81;100.00;101751.91;5056419;28;20934;-77
2023/06/28 10:40:09;;;;;;;16.75;11.05;;;;;;;16.85;100.00;101745.47;5057455;28;20040;-78
2023/06/28 10:42:55;;;;;;;17.52;11.45;;;;;;;16.90;100.00;101746.06;5056552;28;20056;-78
2023/06/28 10:45:40;;;;;;;18.67;11.52;;;;;;;16.91;100.00;101742.44;5054912;28;20057;-78
2023/06/28 10:48:27;;;;;;;16.65;11.73;;;;;;;16.93;100.00;101753.00;5070276;28;20032;-77
2023/06/28 10:51:14;;;;;;;20.33;11.55;;;;;;;16.92;100.00;101749.50;5055006;28;20044;-77
2023/06/28 10:54:12;;;;;;;19.20;12.25;;;;;;;16.94;100.00;101736.03;5053840;28;20054;-77
2023/06/28 10:57:08;;;;;;;22.58;12.43;;;;;;;16.94;100.00;101752.94;5055463;28;20042;-77
2023/06/28 10:59:56;;;;;;;22.63;12.65;;;;;;;16.93;100.00;101745.88;5070590;28;20039;-77
2023/06/28 11:02:59;;;;;;;23.90;13.95;;;;;;;16.88;100.00;101745.25;5070545;28;20062;-77
2023/06/28 11:05:45;;;;;;;21.45;13.30;;;;;;;16.85;100.00;101742.78;5055358;28;20036;-77
2023/06/28 11:08:38;;;;;;;24.40;14.27;;;;;;;16.81;100.00;101743.91;5072505;28;20044;-77
2023/06/28 11:11:30;;;;;;;25.48;14.88;;;;;;;16.78;100.00;101746.75;5071986;28;20664;-76
2023/06/28 11:14:25;;;;;;;30.05;15.50;;;;;;;16.76;100.00;101743.28;5069379;28;20043;-76
2023/06/28 11:17:11;;;;;;;26.17;15.02;;;;;;;16.73;100.00;101741.69;5053112;28;20040;-76
2023/06/28 11:20:26;;;;;;;24.30;15.38;;;;;;;16.74;100.00;101750.53;5069918;28;20040;-77
2023/06/28 11:23:42;;;;;;;32.10;16.50;;;;;;;16.73;100.00;101749.72;5038196;28;20044;-76
2023/06/28 11:26:33;;;;;;;25.40;16.02;;;;;;;16.70;100.00;101744.50;5071572;28;20036;-77
2023/06/28 11:29:20;;;;;;;29.17;17.25;;;;;;;16.72;100.00;101747.13;5056653;28;20092;-76
2023/06/28 11:32:06;;;;;;;29.50;16.33;;;;;;;16.70;100.00;101748.06;5052958;28;20137;-76
2023/06/28 11:34:54;;;;;;;28.83;16.40;;;;;;;16.70;100.00;101745.38;5041472;28;20063;-77
2023/06/28 11:37:41;;;;;;;29.48;18.27;;;;;;;16.74;100.00;101747.88;5056659;28;20032;-76
2023/06/28 11:40:27;;;;;;;33.15;18.52;;;;;;;16.77;100.00;101745.03;5070722;28;20032;-76
2023/06/28 11:43:13;;;;;;;35.78;19.55;;;;;;;16.82;100.00;101742.94;5070700;28;20052;-76
2023/06/28 11:45:59;;;;;;;33.00;19.08;;;;;;;16.88;100.00;101739.91;5056937;28;20047;-76
2023/06/28 11:48:47;;;;;;;38.25;20.50;;;;;;;16.92;100.00;101746.81;5038110;28;20193;-76
2023/06/28 11:51:36;;;;;;;34.15;20.90;;;;;;;16.95;100.00;101737.75;5050956;28;20042;-79
2023/06/28 11:54:22;;;;;;;39.63;21.25;;;;;;;16.97;100.00;101738.53;5079274;28;20407;-77
2023/06/28 11:57:09;;;;;;;36.67;20.92;;;;;;;17.00;100.00;101734.81;5063408;28;20082;-77
2023/06/28 11:59:55;;;;;;;36.35;21.95;;;;;;;16.99;100.00;101735.78;5060382;28;20487;-76
2023/06/28 12:02:48;;;;;;;35.58;20.83;;;;;;;16.95;100.00;101727.06;5060034;28;20044;-77
2023/06/28 12:05:34;;;;;;;;;;;;;;;16.94;100.00;101736.03;5049243;28;20044;-77
2023/06/28 12:08:23;;;;;;;35.97;20.30;;;;;;;16.95;100.00;101733.25;5074288;28;19924;-77
2023/06/28 12:11:12;;;;;;;42.20;21.70;;;;;;;17.02;100.00;101727.59;5077098;28;20038;-77
2023/06/28 12:14:03;;;;;;;37.20;22.45;;;;;;;17.14;100.00;101732.22;5060736;28;20040;-77
2023/06/28 12:16:50;;;;;;;41.92;22.30;;;;;;;17.23;100.00;101725.47;5059996;28;20429;-76
2023/06/28 12:19:36;;;;;;;40.55;22.73;;;;;;;17.26;100.00;101730.59;5061100;28;20115;-77
2023/06/28 12:22:21;;;;;;;42.50;23.25;;;;;;;17.28;100.00;101734.06;5073074;28;20036;-77
2023/06/28 12:25:08;;;;;;;42.25;23.70;;;;;;;17.34;100.00;101736.34;5078315;28;20037;-77
2023/06/28 12:28:02;;;;;;;53.50;25.60;;;;;;;17.40;100.00;101729.78;5079549;28;20040;-76
2023/06/28 12:30:55;;;;;;;38.17;22.98;;;;;;;17.47;100.00;101731.13;5077284;28;20131;-76
2023/06/28 12:33:41;;;;;;;41.13;23.67;;;;;;;17.49;100.00;101731.06;5052213;28;20040;-76
2023/06/28 12:36:28;;;;;;;39.35;23.38;;;;;;;17.53;100.00;101737.09;5038402;28;20779;-76
2023/06/28 12:39:20;;;;;;;39.53;23.67;;;;;;;17.51;100.00;101727.34;5063671;28;20043;-76
2023/06/28 12:42:19;;;;;;;40.90;22.67;;;;;;;17.52;100.00;101730.84;5058385;28;20115;-77